createdAt,value
2018-11-06T00:00:00.740Z,99.90
2018-11-06T00:02:29.478Z,99.90
2018-11-06T00:05:03.443Z,99.80
2018-11-06T00:07:32.091Z,99.70
2018-11-06T00:10:00.786Z,99.70
2018-11-06T00:12:29.607Z,99.90
2018-11-06T00:15:00.309Z,99.90
2018-11-06T00:17:29.217Z,99.90
2018-11-06T00:19:57.948Z,99.90
2018-11-06T00:22:26.618Z,99.90
2018-11-06T00:24:55.328Z,99.90
2018-11-06T00:27:24.156Z,99.90
2018-11-06T00:29:53.072Z,99.90
2018-11-06T00:32:21.843Z,99.90
2018-11-06T00:34:50.734Z,99.90
2018-11-06T00:37:19.393Z,99.90
2018-11-06T00:39:48.219Z,99.90
2018-11-06T00:42:16.888Z,99.90
2018-11-06T00:44:45.674Z,99.90
2018-11-06T00:47:14.469Z,99.90
2018-11-06T00:49:43.330Z,99.90
2018-11-06T00:52:12.064Z,99.90
2018-11-06T00:54:40.759Z,99.90
2018-11-06T00:57:09.641Z,99.90
2018-11-06T00:59:38.421Z,99.90
2018-11-06T01:02:07.252Z,99.90
2018-11-06T01:04:35.995Z,99.90
2018-11-06T01:07:05.064Z,99.90
2018-11-06T01:09:33.723Z,99.90
2018-11-06T01:12:02.420Z,99.90
2018-11-06T01:14:31.227Z,99.90
2018-11-06T01:17:00.006Z,99.90
2018-11-06T01:19:28.838Z,99.90
2018-11-06T01:21:57.588Z,99.90
2018-11-06T01:24:26.392Z,99.90
2018-11-06T01:26:55.033Z,99.90
2018-11-06T01:29:23.739Z,99.90
2018-11-06T01:31:52.541Z,99.90
2018-11-06T01:34:21.182Z,99.90
2018-11-06T01:36:49.924Z,99.90
2018-11-06T01:39:18.625Z,99.90
2018-11-06T01:41:47.337Z,99.90
2018-11-06T01:44:17.491Z,99.90
2018-11-06T01:46:47.060Z,99.90
2018-11-06T01:49:16.024Z,99.90
2018-11-06T01:51:45.015Z,99.90
2018-11-06T01:54:13.681Z,99.90
2018-11-06T01:56:42.537Z,99.90
2018-11-06T01:59:11.367Z,99.90
2018-11-06T02:01:40.076Z,99.90
2018-11-06T02:04:08.849Z,99.90
2018-11-06T02:06:37.716Z,99.90
2018-11-06T02:09:08.680Z,99.90
2018-11-06T02:11:37.383Z,99.90
2018-11-06T02:14:07.194Z,99.90
2018-11-06T02:16:35.924Z,99.90
2018-11-06T02:19:04.869Z,99.90
2018-11-06T02:21:33.591Z,99.90
2018-11-06T02:24:02.710Z,99.90
2018-11-06T02:26:32.400Z,99.90
2018-11-06T02:29:03.236Z,99.90
2018-11-06T02:31:31.900Z,99.90
2018-11-06T02:35:04.360Z,99.90
2018-11-06T02:37:32.979Z,99.90
2018-11-06T02:40:01.780Z,99.90
2018-11-06T02:42:30.439Z,99.90
2018-11-06T02:44:59.273Z,99.90
2018-11-06T02:47:27.921Z,99.90
2018-11-06T02:49:56.717Z,99.90
2018-11-06T02:52:25.416Z,99.90
2018-11-06T02:54:54.223Z,99.90
2018-11-06T02:57:22.991Z,99.90
2018-11-06T02:59:51.652Z,99.90
2018-11-06T03:02:20.344Z,99.90
2018-11-06T03:04:49.199Z,99.90
2018-11-06T03:07:17.903Z,99.90
2018-11-06T03:09:46.617Z,99.90
2018-11-06T03:12:15.333Z,99.90
2018-11-06T03:14:44.087Z,99.90
2018-11-06T03:17:12.796Z,99.90
2018-11-06T03:19:41.542Z,99.90
2018-11-06T03:22:10.348Z,99.90
2018-11-06T03:24:39.060Z,99.90
2018-11-06T03:27:07.777Z,99.90
2018-11-06T03:29:36.517Z,99.90
2018-11-06T03:32:05.768Z,99.90
2018-11-06T03:34:34.560Z,99.90
2018-11-06T03:37:03.257Z,99.90
2018-11-06T03:39:31.969Z,99.90
2018-11-06T03:42:00.668Z,99.90
2018-11-06T03:44:29.437Z,99.90
2018-11-06T03:46:58.245Z,99.90
2018-11-06T03:49:26.936Z,99.90
2018-11-06T03:51:55.687Z,99.90
2018-11-06T03:54:24.483Z,99.90
2018-11-06T03:56:53.274Z,99.90
2018-11-06T03:59:22.055Z,99.90
2018-11-06T04:01:50.780Z,99.70
2018-11-06T04:04:19.407Z,99.60
2018-11-06T04:06:48.218Z,99.90
2018-11-06T04:09:16.894Z,99.90
2018-11-06T04:11:45.553Z,99.90
2018-11-06T04:14:14.368Z,99.90
2018-11-06T04:16:43.064Z,99.90
2018-11-06T04:19:11.844Z,99.90
2018-11-06T04:21:41.293Z,99.90
2018-11-06T04:24:12.487Z,99.90
2018-11-06T04:26:41.162Z,99.90
2018-11-06T04:29:10.491Z,99.90
2018-11-06T04:31:39.944Z,99.90
2018-11-06T04:34:09.499Z,99.90
2018-11-06T04:36:38.268Z,99.90
2018-11-06T04:39:08.663Z,99.90
2018-11-06T04:41:37.511Z,99.90
2018-11-06T04:44:06.984Z,99.90
2018-11-06T04:46:35.699Z,99.70
2018-11-06T04:49:04.882Z,99.90
2018-11-06T04:51:33.579Z,99.90
2018-11-06T04:54:02.858Z,99.90
2018-11-06T04:56:32.152Z,99.90
2018-11-06T04:59:00.865Z,99.90
2018-11-06T05:01:29.663Z,99.90
2018-11-06T05:03:58.269Z,99.90
2018-11-06T05:06:26.996Z,99.90
2018-11-06T05:08:55.991Z,99.90
2018-11-06T05:11:24.886Z,99.90
2018-11-06T05:13:53.715Z,99.90
2018-11-06T05:16:22.460Z,99.90
2018-11-06T05:18:51.100Z,99.90
2018-11-06T05:21:19.699Z,99.90
2018-11-06T05:23:48.441Z,99.90
2018-11-06T05:26:17.306Z,99.90
2018-11-06T05:28:46.007Z,99.90
2018-11-06T05:31:14.656Z,99.90
2018-11-06T05:33:43.580Z,99.90
2018-11-06T05:36:12.196Z,99.90
2018-11-06T05:38:40.784Z,99.90
2018-11-06T05:41:09.697Z,99.90
2018-11-06T05:43:39.034Z,99.90
2018-11-06T05:46:07.794Z,99.90
2018-11-06T05:48:36.582Z,99.90
2018-11-06T05:51:05.768Z,99.90
2018-11-06T05:53:34.660Z,99.90
2018-11-06T05:56:03.456Z,99.90
2018-11-06T05:58:32.128Z,99.90
2018-11-06T06:01:00.967Z,99.90
2018-11-06T06:03:29.592Z,99.90
2018-11-06T06:05:58.321Z,99.90
2018-11-06T06:08:27.292Z,99.90
2018-11-06T06:11:06.785Z,99.90
2018-11-06T06:13:35.597Z,99.90
2018-11-06T06:16:04.480Z,99.90
2018-11-06T06:18:33.316Z,99.90
2018-11-06T06:21:02.098Z,99.30
2018-11-06T06:23:30.875Z,99.20
2018-11-06T06:25:59.657Z,99.30
2018-11-06T06:28:28.377Z,99.10
2018-11-06T06:30:57.079Z,99.30
2018-11-06T06:33:25.808Z,99.50
2018-11-06T06:35:54.492Z,99.40
2018-11-06T06:38:23.199Z,99.40
2018-11-06T06:40:52.151Z,99.40
2018-11-06T06:43:20.840Z,99.40
2018-11-06T06:45:49.539Z,99.50
2018-11-06T06:48:18.436Z,99.60
2018-11-06T06:50:47.139Z,99.70
2018-11-06T06:53:15.813Z,99.80
2018-11-06T07:02:44.447Z,99.90
2018-11-06T07:05:14.552Z,99.90
2018-11-06T07:07:44.160Z,99.90
2018-11-06T07:10:14.753Z,99.90
2018-11-06T07:12:44.516Z,99.90
2018-11-06T07:15:14.532Z,99.90
2018-11-06T07:17:44.122Z,99.90
2018-11-06T07:20:15.367Z,99.90
2018-11-06T07:22:44.248Z,99.90
2018-11-06T07:25:13.796Z,99.90
2018-11-06T07:27:43.484Z,99.80
2018-11-06T07:30:17.584Z,99.70
2018-11-06T07:32:46.742Z,99.80
2018-11-06T07:35:16.428Z,99.80
2018-11-06T07:37:45.700Z,99.90
2018-11-06T07:40:15.943Z,99.90
2018-11-06T07:42:44.707Z,99.90
2018-11-06T07:45:14.599Z,99.90
2018-11-06T07:47:43.596Z,99.90
2018-11-06T07:50:13.086Z,99.90
2018-11-06T07:52:41.992Z,99.90
2018-11-06T07:55:13.015Z,99.90
2018-11-06T07:57:41.707Z,99.90
2018-11-06T08:00:18.904Z,99.90
2018-11-06T08:02:48.313Z,99.90
2018-11-06T08:05:17.296Z,99.90
2018-11-06T08:07:47.117Z,99.90
2018-11-06T08:10:15.916Z,99.90
2018-11-06T08:12:46.133Z,99.90
2018-11-06T08:15:15.051Z,99.90
2018-11-06T08:17:44.874Z,98.90
2018-11-06T08:20:14.019Z,97.90
2018-11-06T08:22:42.789Z,97.30
2018-11-06T08:26:35.928Z,96.30
2018-11-06T08:29:04.859Z,95.40
2018-11-06T08:31:33.810Z,95.00
2018-11-06T08:34:02.427Z,95.20
2018-11-06T08:36:31.281Z,94.90
2018-11-06T08:39:00.028Z,94.90
2018-11-06T08:41:28.678Z,94.40
2018-11-06T08:43:57.404Z,93.70
2018-11-06T08:46:26.059Z,94.10
2018-11-06T08:48:54.849Z,94.10
2018-11-06T08:51:23.553Z,93.40
2018-11-06T08:53:52.325Z,93.10
2018-11-06T08:56:21.141Z,92.90
2018-11-06T08:58:49.954Z,92.20
2018-11-06T09:01:18.627Z,91.30
2018-11-06T09:03:47.339Z,91.20
2018-11-06T09:06:16.107Z,90.80
2018-11-06T09:08:45.088Z,90.40
2018-11-06T09:11:13.944Z,90.60
2018-11-06T09:13:42.587Z,90.80
2018-11-06T09:16:11.432Z,89.20
2018-11-06T09:18:40.198Z,90.60
2018-11-06T09:21:08.961Z,90.30
2018-11-06T09:23:37.632Z,89.20
2018-11-06T09:26:06.455Z,90.10
2018-11-06T09:28:35.195Z,89.20
2018-11-06T09:31:04.277Z,86.80
2018-11-06T09:33:32.893Z,85.90
2018-11-06T09:36:01.580Z,84.90
2018-11-06T09:38:30.388Z,84.80
2018-11-06T09:40:59.059Z,86.70
2018-11-06T09:43:27.963Z,81.80
2018-11-06T09:45:56.631Z,82.00
2018-11-06T09:48:25.647Z,81.90
2018-11-06T09:50:54.297Z,80.10
2018-11-06T09:53:22.984Z,81.00
2018-11-06T09:55:51.822Z,80.70
2018-11-06T09:58:20.961Z,78.00
2018-11-06T10:00:49.687Z,79.40
2018-11-06T10:03:18.335Z,77.80
2018-11-06T10:05:47.044Z,79.80
2018-11-06T10:08:16.161Z,77.90
2018-11-06T10:10:45.056Z,74.60
2018-11-06T10:13:13.803Z,74.60
2018-11-06T10:15:42.563Z,72.90
2018-11-06T10:18:11.167Z,70.00
2018-11-06T10:20:39.997Z,70.20
2018-11-06T10:23:08.664Z,68.80
2018-11-06T10:25:37.456Z,66.20
2018-11-06T10:28:06.267Z,66.40
2018-11-06T10:30:35.095Z,65.00
2018-11-06T10:33:03.816Z,66.20
2018-11-06T10:35:32.506Z,65.00
2018-11-06T10:38:01.220Z,61.70
2018-11-06T10:40:29.988Z,60.90
2018-11-06T10:42:58.660Z,60.70
2018-11-06T10:45:27.333Z,60.10
2018-11-06T10:47:56.128Z,59.30
2018-11-06T10:50:24.724Z,59.30
2018-11-06T10:52:53.395Z,56.50
2018-11-06T10:55:22.409Z,56.20
2018-11-06T10:57:51.003Z,55.70
2018-11-06T11:00:24.984Z,55.10
2018-11-06T11:02:58.940Z,55.00
2018-11-06T11:05:28.902Z,54.70
2018-11-06T11:07:57.691Z,54.30
2018-11-06T11:10:26.398Z,53.50
2018-11-06T11:12:55.039Z,54.60
2018-11-06T11:15:23.957Z,53.10
2018-11-06T11:17:52.675Z,50.90
2018-11-06T11:20:21.407Z,52.10
2018-11-06T11:22:50.056Z,50.60
2018-11-06T11:25:18.683Z,52.00
2018-11-06T11:27:47.600Z,52.90
2018-11-06T11:30:17.060Z,52.60
2018-11-06T11:32:47.204Z,53.10
2018-11-06T11:35:16.111Z,53.50
2018-11-06T11:37:45.078Z,52.60
2018-11-06T11:40:14.913Z,52.60
2018-11-06T11:42:43.895Z,51.50
2018-11-06T11:45:13.617Z,51.10
2018-11-06T11:47:42.331Z,51.20
2018-11-06T11:50:12.521Z,51.40
2018-11-06T11:52:41.414Z,50.80
2018-11-06T11:55:10.303Z,51.70
2018-11-06T11:57:39.743Z,52.00
2018-11-06T12:00:10.946Z,51.90
2018-11-06T12:02:39.620Z,51.20
2018-11-06T12:05:09.017Z,51.70
2018-11-06T12:07:37.963Z,51.20
2018-11-06T12:10:08.024Z,52.40
2018-11-06T12:12:36.759Z,51.50
2018-11-06T12:15:07.719Z,51.60
2018-11-06T12:17:36.357Z,51.90
2018-11-06T12:20:05.221Z,51.50
2018-11-06T12:22:33.924Z,51.80
2018-11-06T12:25:03.083Z,51.30
2018-11-06T12:27:31.569Z,51.70
2018-11-06T12:30:00.373Z,51.80
2018-11-06T12:32:29.204Z,50.30
2018-11-06T12:34:57.857Z,50.20
2018-11-06T12:37:26.496Z,50.10
2018-11-06T12:39:55.322Z,49.80
2018-11-06T12:42:24.034Z,49.10
2018-11-06T12:44:52.906Z,50.30
2018-11-06T12:47:21.679Z,50.20
2018-11-06T12:49:50.349Z,50.30
2018-11-06T12:52:19.168Z,50.20
2018-11-06T12:54:47.944Z,50.30
2018-11-06T12:57:16.778Z,49.80
2018-11-06T12:59:45.530Z,49.30
2018-11-06T13:02:14.236Z,49.90
2018-11-06T13:04:43.089Z,49.70
2018-11-06T13:07:11.797Z,50.00
2018-11-06T13:09:40.453Z,49.60
2018-11-06T13:12:09.253Z,49.40
2018-11-06T13:14:37.952Z,49.90
2018-11-06T13:17:06.983Z,49.30
2018-11-06T13:19:35.722Z,49.10
2018-11-06T13:22:05.125Z,49.10
2018-11-06T13:24:33.783Z,49.10
2018-11-06T13:27:02.666Z,49.00
2018-11-06T13:29:31.413Z,47.90
2018-11-06T13:32:00.051Z,47.50
2018-11-06T13:34:28.888Z,46.80
2018-11-06T13:36:57.491Z,47.10
2018-11-06T13:39:26.099Z,47.50
2018-11-06T13:41:55.015Z,46.70
2018-11-06T13:44:24.061Z,46.80
2018-11-06T13:46:52.404Z,46.40
2018-11-06T13:49:21.152Z,46.60
2018-11-06T13:51:49.828Z,46.40
2018-11-06T13:54:18.647Z,46.10
2018-11-06T13:56:47.316Z,46.00
2018-11-06T13:59:16.038Z,46.50
2018-11-06T14:01:44.772Z,46.60
2018-11-06T14:04:13.493Z,46.60
2018-11-06T14:06:42.183Z,46.70
2018-11-06T14:09:11.633Z,46.60
2018-11-06T14:11:40.773Z,47.40
2018-11-06T14:14:09.554Z,47.70
2018-11-06T14:16:38.405Z,48.60
2018-11-06T14:19:07.137Z,49.10
2018-11-06T14:21:36.015Z,50.30
2018-11-06T14:24:04.803Z,50.20
2018-11-06T14:26:33.585Z,50.60
2018-11-06T14:29:02.390Z,51.30
2018-11-06T14:31:31.074Z,51.60
2018-11-06T14:33:59.808Z,52.40
2018-11-06T14:36:28.528Z,53.20
2018-11-06T14:38:57.216Z,53.40
2018-11-06T14:41:25.993Z,54.20
2018-11-06T14:43:54.794Z,54.80
2018-11-06T14:46:23.440Z,55.50
2018-11-06T14:48:52.124Z,56.10
2018-11-06T14:51:20.845Z,57.30
2018-11-06T14:53:49.644Z,58.40
2018-11-06T14:56:18.299Z,59.00
2018-11-06T14:58:47.210Z,60.00
2018-11-06T15:01:15.880Z,61.20
2018-11-06T15:03:44.692Z,62.20
2018-11-06T15:06:13.473Z,63.30
2018-11-06T15:08:42.152Z,63.80
2018-11-06T15:11:10.821Z,64.80
2018-11-06T15:13:39.834Z,65.90
2018-11-06T15:16:08.505Z,66.80
2018-11-06T15:18:37.164Z,67.40
2018-11-06T15:21:06.511Z,68.30
2018-11-06T15:23:35.177Z,68.80
2018-11-06T15:26:04.091Z,69.30
2018-11-06T15:28:32.755Z,69.60
2018-11-06T15:31:01.416Z,70.10
2018-11-06T15:33:30.298Z,70.80
2018-11-06T15:35:59.119Z,71.50
2018-11-06T15:38:27.912Z,71.60
2018-11-06T15:40:56.738Z,72.40
2018-11-06T15:43:25.592Z,72.60
2018-11-06T15:45:54.251Z,72.60
2018-11-06T15:48:22.930Z,72.80
2018-11-06T15:50:51.747Z,73.00
2018-11-06T15:53:20.631Z,73.30
2018-11-06T15:55:49.312Z,73.30
2018-11-06T15:58:18.035Z,73.60
2018-11-06T16:00:46.823Z,73.70
2018-11-06T16:03:15.689Z,74.20
2018-11-06T16:05:44.360Z,74.80
2018-11-06T16:08:13.086Z,75.10
2018-11-06T16:10:41.772Z,75.10
2018-11-06T16:13:10.525Z,75.20
2018-11-06T16:15:39.257Z,75.60
2018-11-06T16:18:07.876Z,76.10
2018-11-06T16:20:36.676Z,76.60
2018-11-06T16:23:05.403Z,76.80
2018-11-06T16:25:34.049Z,77.00
2018-11-06T16:28:02.840Z,77.60
2018-11-06T16:30:31.572Z,77.50
2018-11-06T16:33:00.338Z,77.70
2018-11-06T16:35:29.396Z,77.90
2018-11-06T16:37:58.189Z,78.50
2018-11-06T16:40:26.872Z,78.80
2018-11-06T16:42:55.679Z,79.70
2018-11-06T16:45:24.420Z,80.00
2018-11-06T16:47:53.664Z,80.10
2018-11-06T16:50:22.956Z,80.50
2018-11-06T16:52:51.652Z,80.80
2018-11-06T16:55:20.872Z,81.80
2018-11-06T16:57:49.835Z,82.00
2018-11-06T17:00:21.338Z,82.50
2018-11-06T17:02:50.229Z,83.20
2018-11-06T17:05:19.012Z,83.40
2018-11-06T17:07:48.472Z,84.10
2018-11-06T17:10:17.890Z,83.70
2018-11-06T17:12:47.093Z,84.10
2018-11-06T17:15:18.315Z,84.20
2018-11-06T17:17:48.107Z,84.40
2018-11-06T17:20:17.118Z,85.00
2018-11-06T17:22:46.059Z,85.50
2018-11-06T17:25:16.307Z,86.10
2018-11-06T17:27:45.305Z,86.30
2018-11-06T17:30:15.319Z,86.60
2018-11-06T17:32:44.337Z,86.70
2018-11-06T17:35:15.012Z,86.80
2018-11-06T17:37:44.152Z,86.90
2018-11-06T17:40:16.209Z,87.70
2018-11-06T17:42:45.459Z,88.00
2018-11-06T17:45:19.804Z,88.60
2018-11-06T17:47:48.622Z,88.00
2018-11-06T17:50:17.818Z,88.70
2018-11-06T17:52:46.903Z,88.70
2018-11-06T17:55:17.107Z,89.10
2018-11-06T17:57:45.999Z,88.90
2018-11-06T18:00:17.847Z,88.90
2018-11-06T18:02:47.096Z,89.00
2018-11-06T18:05:16.684Z,88.80
2018-11-06T18:07:45.791Z,89.20
2018-11-06T18:10:15.915Z,89.10
2018-11-06T18:12:45.100Z,89.40
2018-11-06T18:15:13.973Z,89.70
2018-11-06T18:17:43.183Z,89.80
2018-11-06T18:20:13.112Z,90.30
2018-11-06T18:22:42.602Z,90.40
2018-11-06T18:25:12.420Z,90.20
2018-11-06T18:27:41.364Z,90.30
2018-11-06T18:30:12.646Z,90.20
2018-11-06T18:32:42.404Z,90.30
2018-11-06T18:35:12.586Z,90.30
2018-11-06T18:37:41.414Z,90.40
2018-11-06T18:40:14.009Z,90.30
2018-11-06T18:42:44.084Z,90.60
2018-11-06T18:45:13.352Z,90.80
2018-11-06T18:47:42.290Z,90.90
2018-11-06T18:50:12.665Z,90.80
2018-11-06T18:52:42.582Z,91.10
2018-11-06T18:55:11.312Z,91.10
2018-11-06T18:57:40.319Z,91.10
2018-11-06T19:00:12.643Z,91.30
2018-11-06T19:02:42.451Z,91.30
2018-11-06T19:05:12.356Z,91.50
2018-11-06T19:07:41.149Z,91.60
2018-11-06T19:10:11.561Z,91.50
2018-11-06T19:12:40.455Z,91.70
2018-11-06T19:15:12.152Z,91.70
2018-11-06T19:17:41.242Z,91.80
2018-11-06T19:20:11.020Z,91.80
2018-11-06T19:22:39.952Z,92.00
2018-11-06T19:25:09.829Z,92.10
2018-11-06T19:27:38.724Z,92.10
2018-11-06T19:30:16.195Z,92.10
2018-11-06T19:32:44.858Z,92.20
2018-11-06T19:35:14.390Z,92.20
2018-11-06T19:37:45.381Z,92.40
2018-11-06T19:40:15.884Z,92.40
2018-11-06T19:42:46.481Z,92.40
2018-11-06T19:45:16.791Z,92.50
2018-11-06T19:47:47.211Z,92.80
2018-11-06T19:50:19.061Z,92.60
2018-11-06T19:52:50.518Z,92.80
2018-11-06T19:55:20.402Z,92.90
2018-11-06T19:57:49.553Z,93.00
2018-11-06T20:00:20.954Z,93.40
2018-11-06T20:02:51.391Z,93.50
2018-11-06T20:05:20.927Z,93.40
2018-11-06T20:07:51.388Z,93.40
2018-11-06T20:10:21.955Z,93.60
2018-11-06T20:12:52.798Z,93.80
2018-11-06T20:15:22.996Z,93.80
2018-11-06T20:17:55.193Z,93.90
2018-11-06T20:20:29.530Z,93.80
2018-11-06T20:22:58.946Z,94.00
2018-11-06T20:25:28.243Z,94.20
2018-11-06T20:27:56.961Z,94.20
2018-11-06T20:30:26.636Z,94.60
2018-11-06T20:32:55.639Z,94.50
2018-11-06T20:35:24.282Z,94.20
2018-11-06T20:37:53.278Z,94.20
2018-11-06T20:40:23.414Z,94.80
2018-11-06T20:42:52.306Z,94.50
2018-11-06T20:45:21.497Z,94.70
2018-11-06T20:47:50.162Z,94.50
2018-11-06T20:50:21.836Z,94.60
2018-11-06T20:52:50.676Z,94.10
2018-11-06T20:55:19.651Z,94.30
2018-11-06T20:57:48.314Z,94.90
2018-11-06T21:00:30.266Z,94.00
2018-11-06T21:03:01.347Z,94.30
2018-11-06T21:05:30.176Z,94.60
2018-11-06T21:07:59.088Z,94.90
2018-11-06T21:10:29.548Z,95.20
2018-11-06T21:12:58.227Z,95.80
2018-11-06T21:15:27.211Z,95.90
2018-11-06T21:17:56.297Z,95.90
2018-11-06T21:20:24.942Z,95.70
2018-11-06T21:22:53.791Z,95.80
2018-11-06T21:25:24.613Z,95.90
2018-11-06T21:27:53.305Z,95.70
2018-11-06T21:30:22.431Z,96.00
2018-11-06T21:32:52.327Z,95.80
2018-11-06T21:35:21.222Z,96.10
2018-11-06T21:37:50.147Z,96.30
2018-11-06T21:40:20.435Z,96.90
2018-11-06T21:42:49.406Z,96.80
2018-11-06T21:45:18.667Z,97.00
2018-11-06T21:47:48.573Z,97.80
2018-11-06T21:50:17.921Z,98.20
2018-11-06T21:52:46.631Z,97.90
2018-11-06T21:55:16.665Z,97.90
2018-11-06T21:57:45.305Z,98.10
2018-11-06T22:00:15.675Z,97.60
2018-11-06T22:02:44.534Z,97.50
2018-11-06T22:05:14.446Z,97.70
2018-11-06T22:07:43.423Z,97.30
2018-11-06T22:10:13.459Z,97.60
2018-11-06T22:12:43.123Z,97.30
2018-11-06T22:15:12.967Z,97.30
2018-11-06T22:17:41.855Z,97.10
2018-11-06T22:20:12.691Z,97.30
2018-11-06T22:22:42.192Z,96.90
2018-11-06T22:25:11.022Z,96.80
2018-11-06T22:27:39.878Z,97.00
2018-11-06T22:30:10.624Z,97.30
2018-11-06T22:32:39.934Z,97.80
2018-11-06T22:35:10.189Z,97.50
2018-11-06T22:37:38.918Z,97.80
2018-11-06T22:40:08.428Z,97.80
2018-11-06T22:42:37.572Z,97.80
2018-11-06T22:45:08.068Z,97.70
2018-11-06T22:47:36.720Z,97.60
2018-11-06T22:50:06.872Z,97.70
2018-11-06T22:52:35.630Z,97.40
2018-11-06T22:55:04.630Z,97.80
2018-11-06T22:57:33.273Z,97.80
2018-11-06T23:00:02.073Z,98.10
2018-11-06T23:02:30.795Z,98.00
2018-11-06T23:04:59.459Z,97.80
2018-11-06T23:07:33.577Z,97.80
2018-11-06T23:10:02.256Z,98.10
2018-11-06T23:12:31.075Z,98.20
2018-11-06T23:14:59.695Z,97.90
2018-11-06T23:17:28.411Z,97.80
2018-11-06T23:19:57.088Z,97.80
2018-11-06T23:22:26.101Z,97.80
2018-11-06T23:24:55.016Z,98.00
2018-11-06T23:27:23.534Z,97.80
2018-11-06T23:29:52.316Z,97.90
2018-11-06T23:32:21.060Z,98.10
2018-11-06T23:34:49.705Z,98.20
2018-11-06T23:37:18.508Z,98.20
2018-11-06T23:39:47.179Z,98.50
2018-11-06T23:42:15.840Z,98.30
2018-11-06T23:44:44.525Z,98.20
2018-11-06T23:47:13.262Z,98.10
2018-11-06T23:49:41.944Z,98.10
2018-11-06T23:52:10.591Z,98.00
2018-11-06T23:54:39.315Z,98.40
2018-11-06T23:57:08.019Z,98.50
2018-11-06T23:59:36.784Z,98.30
